Time;durP1;ratioP1;P1;durP2;ratioP2;P2;SDS_P1;SDS_P2;PMS_P1;PMS_P2;Temp;Humidity;BMP_temperature;BMP_pressure;BME280_temperature;BME280_humidity;BME280_pressure;Samples;Min_cycle;Max_cycle;Signal;HPM_P1;HPM_P2
2021/10/31 00:00:06;;;;;;;53.78;39.65;;;;;;;2.04;76.40;101632.81;1763060;80;20934;-71
2021/10/31 00:02:35;;;;;;;57.53;43.02;;;;;;;2.02;76.40;101637.18;1762217;80;21005;-72
2021/10/31 00:05:02;;;;;;;56.55;41.92;;;;;;;2.01;76.44;101635.47;1774808;79;22521;-71
2021/10/31 00:07:28;;;;;;;58.17;43.38;;;;;;;1.99;76.44;101632.91;1783682;79;21361;-72
2021/10/31 00:09:55;;;;;;;56.95;42.73;;;;;;;1.98;76.52;101628.59;1754713;80;21427;-72
2021/10/31 00:12:22;;;;;;;60.58;44.48;;;;;;;1.99;76.54;101625.09;1762888;80;20957;-72
2021/10/31 00:14:49;;;;;;;66.95;44.30;;;;;;;2.01;76.58;101627.66;1755713;80;20945;-72
2021/10/31 00:17:16;;;;;;;62.98;45.08;;;;;;;2.02;76.58;101625.45;1756421;81;21744;-72
2021/10/31 00:19:42;;;;;;;63.70;46.48;;;;;;;2.02;76.57;101622.84;1782928;79;21082;-72
2021/10/31 00:22:09;;;;;;;64.85;44.33;;;;;;;2.01;76.47;101619.84;1760429;80;20968;-72
2021/10/31 00:24:36;;;;;;;63.45;45.80;;;;;;;1.98;76.35;101616.01;1762240;80;21031;-72
2021/10/31 00:27:03;;;;;;;61.98;43.23;;;;;;;1.95;76.35;101614.80;1783802;79;20921;-72
2021/10/31 00:29:31;;;;;;;65.17;45.20;;;;;;;1.93;76.34;101612.64;1788459;79;21044;-72
2021/10/31 00:31:57;;;;;;;70.67;47.70;;;;;;;1.91;76.30;101611.83;1755082;80;21054;-72
2021/10/31 00:34:23;;;;;;;66.40;46.98;;;;;;;1.90;76.20;101612.72;1779474;79;21048;-71
2021/10/31 00:36:50;;;;;;;67.03;45.23;;;;;;;1.86;76.17;101609.80;1782367;79;21510;-72
2021/10/31 00:39:16;;;;;;;68.35;46.37;;;;;;;1.84;76.14;101613.74;1751044;80;20878;-71
2021/10/31 00:41:43;;;;;;;71.02;46.23;;;;;;;1.81;76.04;101605.98;1752076;81;22579;-70
2021/10/31 00:44:09;;;;;;;68.22;43.83;;;;;;;1.79;75.96;101609.52;1727248;81;21412;-71
2021/10/31 00:46:35;;;;;;;63.00;44.15;;;;;;;1.74;75.98;101607.04;1736019;81;21473;-70
2021/10/31 00:49:04;;;;;;;69.90;48.15;;;;;;;1.72;76.01;101605.75;1740235;81;21457;-71
2021/10/31 00:51:30;;;;;;;62.25;45.05;;;;;;;1.70;76.00;101602.33;1760077;81;20956;-71
2021/10/31 00:53:58;;;;;;;64.87;43.60;;;;;;;1.70;75.95;101606.23;1737304;80;22476;-71
2021/10/31 00:56:25;;;;;;;93.03;50.90;;;;;;;1.64;75.80;101606.81;1749545;81;21045;-72
2021/10/31 00:58:52;;;;;;;77.45;48.63;;;;;;;1.56;75.85;101605.70;1774223;80;20971;-71
2021/10/31 01:01:19;;;;;;;127.60;52.50;;;;;;;1.47;75.85;101618.08;1748516;81;21452;-71
2021/10/31 01:03:46;;;;;;;148.62;52.95;;;;;;;1.32;75.94;101614.04;1740764;82;20885;-72
2021/10/31 01:06:50;;;;;;;144.50;49.25;;;;;;;1.20;76.00;101613.00;1745494;81;23028;-72
2021/10/31 01:09:57;;;;;;;193.82;49.85;;;;;;;1.13;76.18;101613.12;1736322;82;20996;-72
2021/10/31 01:12:58;;;;;;;167.30;50.65;;;;;;;1.08;76.37;101620.18;1746878;81;20941;-72
2021/10/31 01:15:47;;;;;;;132.12;49.13;;;;;;;1.05;76.65;101619.36;1745877;81;20983;-72
2021/10/31 01:18:37;;;;;;;100.97;48.60;;;;;;;1.07;76.97;101612.41;1748904;80;21073;-72
2021/10/31 01:21:12;;;;;;;84.00;47.85;;;;;;;1.10;77.20;101596.73;1719636;81;21816;-73
2021/10/31 01:24:03;;;;;;;72.82;45.95;;;;;;;1.12;77.35;101597.09;1767417;81;20921;-72
2021/10/31 01:27:10;;;;;;;83.42;48.10;;;;;;;1.13;77.42;101587.09;1754534;81;20993;-71
2021/10/31 01:30:14;;;;;;;83.58;50.88;;;;;;;1.14;77.35;101597.91;1740768;81;20961;-71
2021/10/31 01:33:04;;;;;;;78.30;51.88;;;;;;;1.12;77.34;101585.39;1738913;81;22161;-70
2021/10/31 01:35:49;;;;;;;66.45;48.15;;;;;;;1.10;77.39;101589.78;1756330;80;21812;-71
2021/10/31 01:38:30;;;;;;;61.88;44.93;;;;;;;1.10;77.49;101582.41;1759670;80;20975;-71
2021/10/31 01:41:19;;;;;;;63.35;44.30;;;;;;;1.09;77.47;101582.86;1758772;80;21039;-70
2021/10/31 01:44:03;;;;;;;61.85;43.40;;;;;;;1.08;77.38;101582.45;1737417;81;21029;-71
2021/10/31 01:47:05;;;;;;;57.53;42.00;;;;;;;1.05;77.38;101575.13;1766035;80;20953;-72
2021/10/31 01:49:54;;;;;;;55.52;42.48;;;;;;;1.03;77.36;101569.97;1758256;80;21841;-71
2021/10/31 01:52:27;;;;;;;55.30;40.78;;;;;;;1.02;77.28;101564.80;1761328;80;21009;-71
2021/10/31 01:54:57;;;;;;;57.50;42.98;;;;;;;1.02;77.27;101570.00;1760255;80;21040;-71
2021/10/31 01:57:24;;;;;;;61.28;42.70;;;;;;;1.00;77.27;101568.74;1759330;80;21067;-72
2021/10/31 02:00:09;;;;;;;59.73;42.65;;;;;;;1.00;77.25;101567.44;1784373;79;20939;-72
2021/10/31 02:02:42;;;;;;;56.58;41.37;;;;;;;1.00;77.21;101566.14;1780895;79;21967;-72
2021/10/31 02:05:09;;;;;;;55.10;39.95;;;;;;;1.00;77.17;101569.19;1783887;79;21004;-71
2021/10/31 02:07:39;;;;;;;59.23;41.75;;;;;;;0.98;77.15;101562.72;1781384;79;22225;-71
2021/10/31 02:10:07;;;;;;;53.48;40.23;;;;;;;0.99;77.11;101563.13;1783985;79;20988;-71
2021/10/31 02:12:35;;;;;;;54.93;38.42;;;;;;;0.98;77.09;101561.42;1758560;81;21075;-72
2021/10/31 02:15:02;;;;;;;55.05;39.92;;;;;;;0.95;77.07;101561.46;1759746;81;21790;-72
2021/10/31 02:17:28;;;;;;;60.25;39.40;;;;;;;0.91;77.08;101557.23;1787163;79;20935;-72
2021/10/31 02:19:55;;;;;;;59.08;39.78;;;;;;;0.90;77.06;101553.36;1749937;81;20897;-72
2021/10/31 02:22:30;;;;;;;61.65;40.15;;;;;;;0.90;77.02;101557.27;1766046;81;20949;-72
2021/10/31 02:24:59;;;;;;;57.53;39.42;;;;;;;0.89;76.97;101556.41;1768116;81;21503;-72
2021/10/31 02:27:25;;;;;;;61.77;40.43;;;;;;;0.87;76.99;101556.89;1757207;81;21836;-71
2021/10/31 02:29:55;;;;;;;57.85;39.60;;;;;;;0.86;77.01;101560.34;1783039;80;20928;-72
2021/10/31 02:32:25;;;;;;;69.87;40.48;;;;;;;0.85;77.03;101550.84;1776804;80;20984;-72
2021/10/31 02:34:53;;;;;;;58.45;40.20;;;;;;;0.85;77.03;101546.94;1774733;80;21352;-72
2021/10/31 02:37:20;;;;;;;61.05;40.10;;;;;;;0.84;77.03;101547.38;1781328;80;20936;-72
2021/10/31 02:39:46;;;;;;;59.75;39.55;;;;;;;0.87;76.96;101554.28;1782368;80;21803;-71
2021/10/31 02:42:12;;;;;;;58.90;38.38;;;;;;;0.86;76.91;101549.50;1749669;80;21008;-72
2021/10/31 02:44:41;;;;;;;56.08;38.85;;;;;;;0.86;76.89;101546.05;1772141;80;20996;-72
2021/10/31 02:47:08;;;;;;;57.90;37.95;;;;;;;0.86;76.87;101544.74;1758686;81;20989;-72
2021/10/31 02:49:35;;;;;;;62.33;37.78;;;;;;;0.85;76.86;101546.48;1802810;79;21143;-72
2021/10/31 02:52:12;;;;;;;58.78;37.55;;;;;;;0.85;76.86;101546.48;1777504;80;21784;-72
2021/10/31 02:55:07;;;;;;;59.65;38.88;;;;;;;0.84;76.85;101549.13;1752272;81;20953;-72
2021/10/31 02:57:45;;;;;;;59.18;38.02;;;;;;;0.82;76.85;101545.27;1751876;81;21028;-72
2021/10/31 03:00:13;;;;;;;59.40;36.90;;;;;;;0.80;76.82;101542.29;1755090;80;21506;-70
2021/10/31 03:02:40;;;;;;;58.70;37.48;;;;;;;0.77;76.80;101543.22;1770539;80;21348;-71
2021/10/31 03:05:07;;;;;;;56.02;37.70;;;;;;;0.76;76.79;101541.92;1759334;81;21863;-71
2021/10/31 03:07:34;;;;;;;57.90;37.23;;;;;;;0.73;76.81;101553.70;1782738;80;21063;-71
2021/10/31 03:10:03;;;;;;;65.20;38.80;;;;;;;0.72;76.79;101548.94;1752973;80;20946;-72
2021/10/31 03:12:30;;;;;;;60.95;39.05;;;;;;;0.71;76.72;101547.67;1783699;79;20928;-71
2021/10/31 03:14:56;;;;;;;61.10;38.63;;;;;;;0.68;76.60;101543.84;1784739;79;20949;-71
2021/10/31 03:17:23;;;;;;;57.78;37.65;;;;;;;0.65;76.63;101548.64;1780458;80;21750;-71
2021/10/31 03:19:49;;;;;;;56.05;38.00;;;;;;;0.65;76.63;101549.94;1765602;80;20934;-72
2021/10/31 03:22:16;;;;;;;63.15;38.80;;;;;;;0.63;76.60;101552.16;1763100;80;21044;-71
2021/10/31 03:24:42;;;;;;;59.98;39.23;;;;;;;0.63;76.52;101550.42;1757822;81;21080;-71
2021/10/31 03:27:09;;;;;;;61.02;38.25;;;;;;;0.62;76.46;101547.41;1755996;81;20981;-71
2021/10/31 03:29:36;;;;;;;63.15;38.85;;;;;;;0.61;76.42;101551.34;1763578;80;21828;-71
2021/10/31 03:32:03;;;;;;;61.85;38.92;;;;;;;0.59;76.38;101550.08;1779711;80;21395;-70
2021/10/31 03:34:29;;;;;;;62.85;39.65;;;;;;;0.57;76.37;101552.68;1761010;81;21056;-71
2021/10/31 03:36:56;;;;;;;63.35;40.25;;;;;;;0.57;76.42;101547.92;1782854;79;20949;-71
2021/10/31 03:39:22;;;;;;;61.33;38.75;;;;;;;0.59;76.44;101553.98;1785517;79;21016;-71
2021/10/31 03:41:48;;;;;;;58.95;38.75;;;;;;;0.57;76.37;101552.68;1784581;78;21802;-71
2021/10/31 03:44:16;;;;;;;58.83;37.73;;;;;;;0.58;76.33;101550.97;1787204;78;20995;-70
2021/10/31 03:46:43;;;;;;;57.30;37.63;;;;;;;0.57;76.33;101541.42;1770023;81;21499;-70
2021/10/31 03:49:15;;;;;;;59.00;37.85;;;;;;;0.56;76.34;101543.61;1763707;81;20976;-72
2021/10/31 03:51:43;;;;;;;60.48;37.25;;;;;;;0.57;76.33;101544.88;1781636;78;20941;-72
2021/10/31 03:54:09;;;;;;;56.10;37.03;;;;;;;0.57;76.36;101540.98;1788243;78;22420;-72
2021/10/31 03:56:36;;;;;;;56.58;37.78;;;;;;;0.60;76.38;101540.09;1786242;78;21965;-72
2021/10/31 03:59:03;;;;;;;56.70;37.23;;;;;;;0.60;76.34;101536.19;1760082;80;20971;-71
2021/10/31 04:01:32;;;;;;;54.98;36.63;;;;;;;0.60;76.30;101539.23;1796007;78;20987;-72
2021/10/31 04:04:00;;;;;;;56.90;37.10;;;;;;;0.60;76.21;101531.44;1762075;80;21558;-72
2021/10/31 04:06:26;;;;;;;55.95;37.33;;;;;;;0.56;76.10;101539.72;1756184;80;21805;-71
2021/10/31 04:08:53;;;;;;;59.23;37.40;;;;;;;0.52;76.06;101532.43;1774111;80;21056;-72
2021/10/31 04:11:19;;;;;;;55.05;36.63;;;;;;;0.51;76.03;101534.63;1776160;79;21000;-71
2021/10/31 04:13:46;;;;;;;58.30;38.02;;;;;;;0.51;76.07;101532.47;1775285;79;20984;-72
2021/10/31 04:16:13;;;;;;;55.60;37.58;;;;;;;0.50;76.05;101530.31;1778398;79;21174;-72
2021/10/31 04:18:39;;;;;;;56.90;36.88;;;;;;;0.49;75.94;101535.55;1770135;79;21784;-72
2021/10/31 04:21:06;;;;;;;58.75;38.02;;;;;;;0.47;75.86;101530.34;1744452;81;20995;-71
2021/10/31 04:23:32;;;;;;;62.15;38.02;;;;;;;0.44;75.79;101525.66;1773089;79;21031;-72
2021/10/31 04:25:59;;;;;;;59.15;38.33;;;;;;;0.42;75.74;101531.34;1772062;79;21400;-71
2021/10/31 04:28:26;;;;;;;62.13;39.70;;;;;;;0.38;75.71;101524.47;1778114;80;21391;-72
2021/10/31 04:30:52;;;;;;;59.13;38.42;;;;;;;0.34;75.67;101526.28;1775641;79;22802;-71
2021/10/31 04:33:18;;;;;;;63.63;40.23;;;;;;;0.32;75.61;101529.36;1779147;80;20856;-71
2021/10/31 04:35:45;;;;;;;62.53;40.43;;;;;;;0.28;75.55;101531.14;1773083;79;20980;-72
2021/10/31 04:38:16;;;;;;;58.60;38.55;;;;;;;0.25;75.51;101528.61;1750351;80;20968;-71
2021/10/31 04:40:41;;;;;;;61.83;39.70;;;;;;;0.25;75.49;101526.01;1766630;80;36247;-71
2021/10/31 04:43:11;;;;;;;64.10;40.60;;;;;;;0.24;75.51;101517.80;1751790;81;22198;-72
2021/10/31 04:45:40;;;;;;;61.60;40.35;;;;;;;0.25;75.54;101519.95;1751966;80;21047;-72
2021/10/31 04:48:07;;;;;;;75.55;47.05;;;;;;;0.25;75.58;101516.06;1759661;81;21452;-71
2021/10/31 04:50:33;;;;;;;75.83;48.35;;;;;;;0.24;75.51;101513.91;1764339;80;21075;-71
2021/10/31 04:53:00;;;;;;;79.55;49.95;;;;;;;0.23;75.45;101511.34;1769598;80;20992;-72
2021/10/31 04:55:27;;;;;;;80.30;49.85;;;;;;;0.21;75.39;101510.52;1758165;80;22184;-71
2021/10/31 04:57:53;;;;;;;64.17;41.18;;;;;;;0.18;75.30;101510.55;1761829;80;20952;-71
2021/10/31 05:00:19;;;;;;;61.25;40.23;;;;;;;0.16;75.28;101509.73;1770512;80;20933;-70
2021/10/31 05:02:46;;;;;;;66.72;42.55;;;;;;;0.14;75.26;101506.31;1779815;80;21007;-71
2021/10/31 05:05:13;;;;;;;66.60;41.95;;;;;;;0.12;75.26;101497.70;1761986;80;21039;-71
2021/10/31 05:07:40;;;;;;;63.45;40.15;;;;;;;0.11;75.29;101511.13;1758126;81;21844;-70
2021/10/31 05:10:08;;;;;;;62.35;42.03;;;;;;;0.12;75.26;101510.69;1765111;80;21463;-69
2021/10/31 05:12:36;;;;;;;64.97;40.98;;;;;;;0.12;75.24;101510.69;1771076;80;21000;-70
2021/10/31 05:15:04;;;;;;;67.80;41.28;;;;;;;0.11;75.28;101509.83;1756708;80;20945;-71
2021/10/31 05:17:32;;;;;;;66.05;43.45;;;;;;;0.12;75.27;101515.88;1760149;80;20969;-71
2021/10/31 05:19:58;;;;;;;77.03;47.10;;;;;;;0.11;75.25;101514.17;1747225;80;22556;-72
2021/10/31 05:22:25;;;;;;;75.90;47.62;;;;;;;0.12;75.30;101510.69;1736322;80;21415;-71
2021/10/31 05:24:51;;;;;;;94.30;57.38;;;;;;;0.13;75.35;101510.66;1756879;80;20953;-71
2021/10/31 05:27:18;;;;;;;81.60;52.50;;;;;;;0.17;75.37;101507.10;1728405;81;21000;-72
2021/10/31 05:29:44;;;;;;;85.12;53.10;;;;;;;0.20;75.43;101503.61;1767577;80;21027;-72
2021/10/31 05:32:10;;;;;;;88.37;52.45;;;;;;;0.23;75.50;101503.10;1785953;80;21817;-71
2021/10/31 05:34:37;;;;;;;82.10;53.05;;;;;;;0.27;75.57;101508.64;1756215;80;20958;-72
2021/10/31 05:37:04;;;;;;;88.90;53.63;;;;;;;0.31;75.59;101509.46;1769335;80;21086;-72
2021/10/31 05:39:30;;;;;;;81.63;54.55;;;;;;;0.34;75.69;101506.80;1764531;80;21375;-72
2021/10/31 05:41:57;;;;;;;115.42;74.03;;;;;;;0.42;75.82;101510.11;1757912;80;21020;-70
2021/10/31 05:44:23;;;;;;;138.65;91.42;;;;;;;0.48;75.95;101517.80;1770446;79;21831;-70
2021/10/31 05:46:49;;;;;;;131.22;89.70;;;;;;;0.55;76.04;101510.71;1768232;79;21019;-71
2021/10/31 05:49:16;;;;;;;125.92;83.20;;;;;;;0.61;76.09;101516.25;1760204;79;21016;-71
2021/10/31 05:51:43;;;;;;;112.55;76.25;;;;;;;0.68;76.22;101516.55;1781103;80;20952;-70
2021/10/31 05:54:10;;;;;;;116.57;78.17;;;;;;;0.76;76.40;101522.41;1771870;79;20948;-71
2021/10/31 05:56:36;;;;;;;113.90;73.42;;;;;;;0.84;76.54;101521.37;1764929;79;22244;-71
2021/10/31 05:59:02;;;;;;;106.30;70.03;;;;;;;0.93;76.67;101524.67;1764847;79;20933;-70
2021/10/31 06:01:31;;;;;;;101.72;68.50;;;;;;;1.02;76.75;101525.33;1766322;79;20988;-70
2021/10/31 06:03:57;;;;;;;101.80;64.95;;;;;;;1.12;76.86;101528.14;1739338;81;21110;-70
2021/10/31 06:06:26;;;;;;;97.95;63.78;;;;;;;1.24;76.97;101532.22;1766005;81;21043;-70
2021/10/31 06:08:53;;;;;;;99.40;64.32;;;;;;;1.34;77.04;101532.86;1769793;80;22651;-69
2021/10/31 06:11:19;;;;;;;93.12;61.55;;;;;;;1.46;77.15;101522.19;1761211;79;21340;-68
2021/10/31 06:13:47;;;;;;;98.25;60.92;;;;;;;1.58;77.25;101524.95;1773093;80;21013;-69
2021/10/31 06:16:14;;;;;;;104.67;64.80;;;;;;;1.71;77.42;101527.20;1766213;81;20972;-69
2021/10/31 06:18:40;;;;;;;116.05;73.75;;;;;;;1.86;77.64;101534.25;1737178;80;21059;-69
2021/10/31 06:21:07;;;;;;;111.22;68.15;;;;;;;2.01;77.88;101526.88;1770362;80;21777;-69
2021/10/31 06:23:35;;;;;;;94.80;60.33;;;;;;;2.19;78.05;101523.39;1794293;79;20925;-73
2021/10/31 06:26:04;;;;;;;86.72;59.83;;;;;;;2.36;78.27;101525.11;1797859;79;20940;-73
2021/10/31 06:28:31;;;;;;;81.78;56.18;;;;;;;2.54;78.49;101527.22;1774203;79;21016;-72
2021/10/31 06:30:57;;;;;;;75.47;50.70;;;;;;;2.71;78.70;101520.23;1776845;79;21569;-71
2021/10/31 06:33:24;;;;;;;69.60;48.50;;;;;;;2.87;78.88;101514.95;1781768;80;21706;-70
2021/10/31 06:35:50;;;;;;;69.77;46.20;;;;;;;3.05;79.04;101523.14;1765295;80;21430;-71
2021/10/31 06:38:17;;;;;;;66.28;44.15;;;;;;;3.22;79.24;101518.27;1780021;80;20972;-70
2021/10/31 06:40:44;;;;;;;62.80;44.05;;;;;;;3.37;79.34;101524.77;1748376;82;21029;-70
2021/10/31 06:43:11;;;;;;;62.75;45.35;;;;;;;3.51;79.38;101520.43;1777709;80;21084;-72
2021/10/31 06:45:38;;;;;;;62.25;43.02;;;;;;;3.67;79.53;101520.34;1752125;81;22239;-71
2021/10/31 06:48:06;;;;;;;64.17;44.42;;;;;;;3.83;79.75;101525.45;1753070;81;21075;-73
2021/10/31 06:50:33;;;;;;;61.95;42.93;;;;;;;4.00;79.88;101521.83;1726153;81;21055;-71
2021/10/31 06:52:59;;;;;;;57.73;40.38;;;;;;;4.18;80.01;101523.42;1756068;81;21012;-71
2021/10/31 06:55:26;;;;;;;57.43;41.00;;;;;;;4.36;80.08;101522.78;1781636;80;21069;-71
2021/10/31 06:57:52;;;;;;;60.92;40.55;;;;;;;4.57;80.33;101524.63;1784617;79;22241;-70
2021/10/31 07:00:19;;;;;;;57.70;38.78;;;;;;;4.74;80.33;101514.01;1779577;79;21285;-70
2021/10/31 07:02:47;;;;;;;56.13;38.42;;;;;;;4.93;80.33;101518.10;1756216;80;21112;-73
2021/10/31 07:05:14;;;;;;;50.33;35.43;;;;;;;5.11;80.30;101515.61;1758247;80;21275;-71
2021/10/31 07:07:40;;;;;;;52.48;35.55;;;;;;;5.32;80.39;101517.02;1766834;80;21400;-71
2021/10/31 07:10:08;;;;;;;51.20;33.80;;;;;;;5.52;80.46;101511.84;1766492;80;21830;-70
2021/10/31 07:12:36;;;;;;;48.40;31.57;;;;;;;5.75;80.35;101514.37;1779316;79;21403;-71
2021/10/31 07:15:03;;;;;;;42.60;30.27;;;;;;;5.97;80.08;101508.25;1785058;79;21050;-71
2021/10/31 07:17:30;;;;;;;41.10;28.07;;;;;;;6.19;79.76;101505.13;1763276;80;20962;-74
2021/10/31 07:19:57;;;;;;;38.67;26.87;;;;;;;6.39;79.39;101506.04;1753214;80;20984;-73
2021/10/31 07:22:23;;;;;;;37.38;25.97;;;;;;;6.59;78.78;101502.06;1741322;82;21878;-71
2021/10/31 07:24:51;;;;;;;41.37;27.17;;;;;;;6.78;78.39;101502.09;1748621;80;21106;-71
2021/10/31 07:27:19;;;;;;;42.13;27.52;;;;;;;6.94;77.94;101503.53;1772879;80;21355;-71
2021/10/31 07:29:45;;;;;;;41.13;27.17;;;;;;;7.09;77.54;101499.73;1778767;80;21222;-72
2021/10/31 07:32:12;;;;;;;34.65;24.77;;;;;;;7.24;77.05;101497.30;1781344;80;20980;-73
2021/10/31 07:34:39;;;;;;;37.67;26.12;;;;;;;7.37;76.27;101493.17;1777074;80;22144;-71
2021/10/31 07:37:06;;;;;;;40.48;25.97;;;;;;;7.52;75.58;101490.25;1780017;80;20969;-72
2021/10/31 07:39:35;;;;;;;37.33;26.05;;;;;;;7.65;75.18;101490.05;1771843;80;21011;-72
2021/10/31 07:42:02;;;;;;;38.53;27.55;;;;;;;7.79;74.82;101490.67;1794527;79;20957;-72
2021/10/31 07:44:29;;;;;;;36.63;26.02;;;;;;;7.91;74.64;101486.98;1796059;78;20948;-72
2021/10/31 07:46:56;;;;;;;36.55;26.05;;;;;;;8.04;74.39;101492.47;1780836;80;21824;-73
2021/10/31 07:49:23;;;;;;;36.15;25.62;;;;;;;8.16;74.05;101484.40;1780731;80;21408;-72
2021/10/31 07:51:50;;;;;;;31.12;23.25;;;;;;;8.29;73.65;101486.30;1775147;80;21010;-71
2021/10/31 07:54:23;;;;;;;33.95;23.55;;;;;;;8.42;73.16;101489.20;1737908;81;21000;-71
2021/10/31 07:56:48;;;;;;;30.60;22.45;;;;;;;8.52;72.45;101488.25;1759216;80;20992;-70
2021/10/31 07:59:14;;;;;;;34.10;22.58;;;;;;;8.60;72.20;101486.91;1760992;81;22201;-71
2021/10/31 08:01:41;;;;;;;31.17;21.50;;;;;;;8.71;71.77;101485.02;1759502;81;20933;-71
2021/10/31 08:04:07;;;;;;;29.60;21.87;;;;;;;8.81;71.44;101486.69;1754689;81;20977;-73
2021/10/31 08:06:35;;;;;;;31.93;21.27;;;;;;;8.89;71.14;101492.39;1771341;81;21443;-71
2021/10/31 08:09:02;;;;;;;30.17;20.50;;;;;;;8.96;70.63;101491.09;1760504;81;20953;-70
2021/10/31 08:11:28;;;;;;;29.45;20.17;;;;;;;9.04;70.40;101491.53;1763636;81;21827;-70
2021/10/31 08:13:54;;;;;;;28.85;19.40;;;;;;;9.12;70.00;101493.75;1769395;81;21080;-71
2021/10/31 08:16:24;;;;;;;28.05;20.15;;;;;;;9.16;69.75;101488.20;1771904;81;21017;-72
2021/10/31 08:18:50;;;;;;;27.98;19.95;;;;;;;9.24;69.63;101490.42;1760400;80;20993;-73
2021/10/31 08:21:17;;;;;;;27.45;20.55;;;;;;;9.30;69.39;101480.86;1748588;82;21000;-72
2021/10/31 08:23:43;;;;;;;27.27;20.10;;;;;;;9.37;69.42;101484.86;1766089;81;22621;-69
2021/10/31 08:26:10;;;;;;;31.60;21.93;;;;;;;9.44;69.09;101487.98;1761507;81;21446;-70
2021/10/31 08:28:39;;;;;;;30.45;22.07;;;;;;;9.50;69.09;101490.28;1769515;81;21035;-71
2021/10/31 08:31:05;;;;;;;30.52;22.27;;;;;;;9.56;69.06;101488.63;1758530;81;21040;-72
2021/10/31 08:33:35;;;;;;;29.00;21.48;;;;;;;9.66;68.99;101490.26;1758202;80;20965;-74
2021/10/31 08:36:03;;;;;;;33.92;24.18;;;;;;;9.76;68.89;101482.19;1764275;81;21824;-71
2021/10/31 08:38:31;;;;;;;32.40;23.22;;;;;;;9.86;68.98;101479.39;1758842;81;20944;-71
2021/10/31 08:40:58;;;;;;;30.92;21.60;;;;;;;9.97;68.79;101470.84;1742156;81;21052;-74
2021/10/31 08:43:25;;;;;;;29.85;22.32;;;;;;;10.09;68.37;101471.89;1769491;80;21019;-72
2021/10/31 08:45:51;;;;;;;30.48;20.62;;;;;;;10.16;68.15;101470.59;1768766;80;20989;-68
2021/10/31 08:48:19;;;;;;;27.10;20.55;;;;;;;10.23;67.87;101467.97;1762656;81;22198;-69
2021/10/31 08:50:45;;;;;;;27.65;21.25;;;;;;;10.31;67.47;101463.92;1763564;80;20985;-69
2021/10/31 08:53:12;;;;;;;32.13;20.52;;;;;;;10.37;66.99;101465.35;1762393;81;20945;-70
2021/10/31 08:55:40;;;;;;;29.23;22.13;;;;;;;10.40;66.61;101455.06;1768554;80;20992;-70
2021/10/31 08:58:08;;;;;;;29.80;21.35;;;;;;;10.42;66.33;101454.05;1779505;80;21477;-70
2021/10/31 09:00:36;;;;;;;31.82;21.80;;;;;;;10.49;66.54;101455.81;1769714;80;21776;-71
2021/10/31 09:03:05;;;;;;;26.80;21.10;;;;;;;10.58;66.58;101453.93;1763777;80;20945;-73
2021/10/31 09:05:31;;;;;;;28.02;21.25;;;;;;;10.67;66.72;101452.03;1765821;81;20952;-71
2021/10/31 09:07:58;;;;;;;28.10;21.02;;;;;;;10.82;66.77;101448.91;1762005;80;20980;-74
2021/10/31 09:10:26;;;;;;;30.15;20.12;;;;;;;10.98;66.26;101440.84;1760229;80;21060;-71
2021/10/31 10:27:57;;;;;;;27.48;22.00;;;;;;;13.60;57.46;101353.98;1850057;75;22615;-72
2021/10/31 10:30:25;;;;;;;29.45;20.00;;;;;;;13.71;56.78;101347.39;1821658;77;21340;-71
2021/10/31 10:32:58;;;;;;;29.27;21.87;;;;;;;13.70;55.80;101349.20;1809484;77;21817;-72
2021/10/31 10:35:27;;;;;;;30.37;22.55;;;;;;;13.65;55.71;101343.38;1824845;77;21404;-70
2021/10/31 10:37:55;;;;;;;30.70;23.92;;;;;;;13.58;55.31;101350.12;1812536;77;21395;-70
2021/10/31 10:40:26;;;;;;;30.72;24.02;;;;;;;13.51;55.41;101348.05;1808927;77;21004;-72
2021/10/31 10:42:57;;;;;;;28.52;22.50;;;;;;;13.51;56.40;101342.73;1814144;77;21037;-70
2021/10/31 10:45:27;;;;;;;28.65;23.20;;;;;;;13.64;55.69;101336.88;1842387;77;21812;-72
2021/10/31 10:47:57;;;;;;;25.97;21.50;;;;;;;13.77;55.06;101334.11;1843848;77;21435;-70
2021/10/31 10:50:30;;;;;;;34.03;23.15;;;;;;;13.72;54.24;101326.52;1824303;77;20993;-70
2021/10/31 10:52:56;;;;;;;30.25;23.30;;;;;;;13.57;54.62;101327.20;1836700;77;20988;-73
2021/10/31 10:55:27;;;;;;;34.27;26.90;;;;;;;13.60;54.65;101323.45;1851169;76;21004;-70
2021/10/31 10:57:58;;;;;;;32.95;25.50;;;;;;;13.63;54.34;101317.92;1820369;77;21773;-70
2021/10/31 11:00:43;;;;;;;36.63;27.93;;;;;;;13.67;54.97;101318.04;1819586;77;21497;-75
2021/10/31 11:03:18;;;;;;;32.80;26.02;;;;;;;13.74;54.60;101320.59;1805010;79;21043;-73
2021/10/31 11:05:50;;;;;;;33.33;24.10;;;;;;;13.87;54.12;101313.83;1765873;79;21005;-73
2021/10/31 11:08:23;;;;;;;;;;;;;;;14.04;54.48;101310.22;1773097;79;21587;-75
2021/10/31 11:10:58;;;;;;;29.02;21.20;;;;;;;14.24;54.16;101300.66;1758772;79;26442;-72
2021/10/31 11:13:26;;;;;;;41.63;23.45;;;;;;;14.44;52.79;101306.19;1771449;79;21134;-73
2021/10/31 11:15:55;;;;;;;26.37;20.55;;;;;;;14.54;53.11;101300.52;1758560;79;21429;-73
2021/10/31 11:18:22;;;;;;;30.05;21.95;;;;;;;14.67;51.30;101303.01;1748244;80;20964;-72
2021/10/31 11:20:48;;;;;;;29.87;22.82;;;;;;;14.55;51.59;101298.22;1749562;80;21039;-70
2021/10/31 11:23:20;;;;;;;28.20;20.08;;;;;;;14.48;52.19;101297.05;1737676;80;21769;-70
2021/10/31 11:25:47;;;;;;;25.52;18.15;;;;;;;14.65;51.60;101292.50;1720402;82;21537;-68
2021/10/31 11:28:16;;;;;;;19.98;16.12;;;;;;;14.71;50.21;101285.84;1737696;80;20955;-68
2021/10/31 11:30:48;;;;;;;23.70;17.45;;;;;;;14.53;49.21;101283.72;1743921;80;20975;-70
2021/10/31 11:33:16;;;;;;;21.33;16.80;;;;;;;14.13;49.63;101284.73;1744155;81;21042;-70
2021/10/31 11:35:42;;;;;;;24.30;16.87;;;;;;;14.03;51.38;101285.95;1738543;80;22223;-71
2021/10/31 11:38:17;;;;;;;20.85;16.62;;;;;;;14.36;51.72;101287.34;1738507;80;20999;-70
2021/10/31 11:40:50;;;;;;;21.48;16.62;;;;;;;14.74;51.21;101271.80;1703253;82;21011;-71
2021/10/31 11:43:23;;;;;;;21.35;16.10;;;;;;;14.90;50.58;101267.39;1737816;81;20961;-71
2021/10/31 11:45:52;;;;;;;20.55;14.98;;;;;;;15.12;50.01;101270.42;1742381;81;21028;-72
2021/10/31 11:48:25;;;;;;;18.15;14.10;;;;;;;15.23;48.26;101277.50;1743426;81;21768;-71
2021/10/31 11:51:10;;;;;;;19.25;14.50;;;;;;;14.98;47.03;101259.63;1731501;80;21082;-69
2021/10/31 11:53:51;;;;;;;21.07;14.78;;;;;;;14.55;47.58;101262.32;1764730;80;21027;-69
2021/10/31 11:56:26;;;;;;;19.52;14.05;;;;;;;14.18;48.21;101258.62;1748813;80;21059;-70
2021/10/31 11:59:03;;;;;;;20.55;15.23;;;;;;;13.99;48.46;101256.63;1746250;80;21000;-70
2021/10/31 12:01:51;;;;;;;19.52;14.78;;;;;;;13.82;48.85;101254.95;1749267;80;22806;-70
2021/10/31 12:07:42;;;;;;;19.25;14.38;;;;;;;13.84;49.19;101246.37;1747339;80;20987;-72
2021/10/31 12:10:37;;;;;;;18.35;14.53;;;;;;;13.90;50.41;101245.89;1742856;80;21054;-69
2021/10/31 12:13:17;;;;;;;19.27;13.30;;;;;;;14.41;49.90;101246.64;1717473;83;20984;-71
2021/10/31 12:16:11;;;;;;;17.82;13.58;;;;;;;14.78;48.50;101248.48;1739287;80;20969;-70
2021/10/31 12:18:51;;;;;;;16.55;13.53;;;;;;;14.73;47.79;101240.86;1750088;81;21013;-71
2021/10/31 12:21:32;;;;;;;19.25;13.70;;;;;;;14.63;48.32;101238.61;1748488;81;21000;-70
2021/10/31 12:24:09;;;;;;;18.32;13.03;;;;;;;14.77;48.35;101239.66;1748594;82;20996;-71
2021/10/31 12:26:42;;;;;;;16.02;12.35;;;;;;;14.92;47.14;101228.70;1751548;81;21019;-71
2021/10/31 12:29:12;;;;;;;14.83;11.90;;;;;;;14.93;47.28;101228.56;1770969;80;21845;-71
2021/10/31 12:31:59;;;;;;;16.02;12.28;;;;;;;14.81;46.86;101232.25;1764258;80;21086;-69
2021/10/31 12:34:49;;;;;;;19.50;12.58;;;;;;;14.62;46.86;101223.63;1741447;81;20964;-69
2021/10/31 12:37:24;;;;;;;17.90;13.03;;;;;;;14.53;47.20;101217.75;1764700;81;20952;-69
2021/10/31 12:40:07;;;;;;;18.62;14.55;;;;;;;14.46;47.49;101217.89;1764377;81;20948;-69
2021/10/31 12:42:58;;;;;;;17.40;12.85;;;;;;;14.54;47.90;101214.11;1764268;81;21851;-69
2021/10/31 12:45:27;;;;;;;17.60;12.68;;;;;;;14.84;46.95;101214.21;1763869;81;21053;-71